createdAt,value
2017-11-20T00:00:19.184Z,11.48
2017-11-20T00:02:45.624Z,16.62
2017-11-20T00:05:12.024Z,12.75
2017-11-20T00:07:39.156Z,13.98
2017-11-20T00:10:06.313Z,9.93
2017-11-20T00:12:33.465Z,13.80
2017-11-20T00:15:00.625Z,11.85
2017-11-20T00:17:27.030Z,11.90
2017-11-20T00:19:53.454Z,13.02
2017-11-20T00:22:19.882Z,14.23
2017-11-20T00:24:46.328Z,11.73
2017-11-20T00:27:12.772Z,13.38
2017-11-20T00:29:39.925Z,10.63
2017-11-20T00:32:07.084Z,14.40
2017-11-20T00:34:34.258Z,12.70
2017-11-20T00:37:00.657Z,15.75
2017-11-20T00:39:27.884Z,12.10
2017-11-20T00:41:54.276Z,14.82
2017-11-20T00:44:20.652Z,14.87
2017-11-20T00:46:47.056Z,13.45
2017-11-20T00:49:13.455Z,14.93
2017-11-20T00:51:39.861Z,15.95
2017-11-20T00:54:06.280Z,14.60
2017-11-20T00:56:32.693Z,14.18
2017-11-20T00:58:59.116Z,13.73
2017-11-20T01:01:25.516Z,11.02
2017-11-20T01:03:51.947Z,11.80
2017-11-20T01:06:18.383Z,12.98
2017-11-20T01:08:44.842Z,17.23
2017-11-20T01:11:11.271Z,12.70
2017-11-20T01:13:37.676Z,18.62
2017-11-20T01:16:04.857Z,13.75
2017-11-20T01:18:31.276Z,15.55
2017-11-20T01:20:57.652Z,13.38
2017-11-20T01:23:24.052Z,13.62
2017-11-20T01:25:50.480Z,11.68
2017-11-20T01:28:16.861Z,14.68
2017-11-20T01:30:43.292Z,15.02
2017-11-20T01:33:09.715Z,10.55
2017-11-20T01:35:36.117Z,10.05
2017-11-20T01:38:02.556Z,8.70
2017-11-20T01:40:29.009Z,10.30
2017-11-20T01:42:56.190Z,10.00
2017-11-20T01:45:23.373Z,9.65
2017-11-20T01:47:49.804Z,7.47
2017-11-20T01:50:16.241Z,10.00
2017-11-20T01:52:42.672Z,9.77
2017-11-20T01:55:09.155Z,11.98
2017-11-20T01:57:35.580Z,8.23
2017-11-20T02:00:02.022Z,9.25
2017-11-20T02:02:28.487Z,11.95
2017-11-20T02:04:55.666Z,9.32
2017-11-20T02:07:22.061Z,12.48
2017-11-20T02:09:49.246Z,11.20
2017-11-20T02:12:15.678Z,10.38
2017-11-20T02:14:42.116Z,15.80
2017-11-20T02:17:08.516Z,12.82
2017-11-20T02:19:35.692Z,19.52
2017-11-20T02:22:02.129Z,10.60
2017-11-20T02:24:33.539Z,13.85
2017-11-20T02:26:59.976Z,9.82
2017-11-20T02:29:27.200Z,15.38
2017-11-20T02:31:53.646Z,9.63
2017-11-20T02:34:20.876Z,9.95
2017-11-20T02:36:47.310Z,13.00
2017-11-20T02:39:14.486Z,10.18
2017-11-20T02:41:41.677Z,11.35
2017-11-20T02:44:08.151Z,9.70
2017-11-20T02:46:35.336Z,9.75
2017-11-20T02:49:02.530Z,10.05
2017-11-20T02:51:28.956Z,6.93
2017-11-20T02:53:55.552Z,5.40
2017-11-20T02:56:22.717Z,4.15
2017-11-20T02:58:49.173Z,4.22
2017-11-20T03:01:15.642Z,2.33
2017-11-20T03:03:43.054Z,3.50
2017-11-20T03:06:09.483Z,6.00
2017-11-20T03:08:35.932Z,10.77
2017-11-20T03:11:02.386Z,10.68
2017-11-20T03:13:28.825Z,10.85
2017-11-20T03:15:55.291Z,13.00
2017-11-20T03:18:22.449Z,11.20
2017-11-20T03:20:49.659Z,11.48
2017-11-20T03:23:16.121Z,11.45
2017-11-20T03:25:42.573Z,11.25
2017-11-20T03:28:09.020Z,13.13
2017-11-20T03:30:35.455Z,14.98
2017-11-20T03:33:01.934Z,9.60
2017-11-20T03:35:28.336Z,12.68
2017-11-20T03:37:54.931Z,12.88
2017-11-20T03:40:22.103Z,8.70
2017-11-20T03:42:48.640Z,7.78
2017-11-20T03:45:15.109Z,6.68
2017-11-20T03:47:41.509Z,7.32
2017-11-20T03:50:07.958Z,7.82
2017-11-20T03:52:34.393Z,7.40
2017-11-20T03:55:00.771Z,7.95
2017-11-20T03:57:27.238Z,8.13
2017-11-20T03:59:53.641Z,9.40
2017-11-20T04:02:20.846Z,8.90
2017-11-20T04:04:48.002Z,10.40
2017-11-20T04:07:14.416Z,13.90
2017-11-20T04:09:40.852Z,12.52
2017-11-20T04:12:07.277Z,12.82
2017-11-20T04:14:33.694Z,10.60
2017-11-20T04:17:00.109Z,13.50
2017-11-20T04:19:27.268Z,10.95
2017-11-20T04:21:54.420Z,11.10
2017-11-20T04:24:21.590Z,13.93
2017-11-20T04:26:47.998Z,11.90
2017-11-20T04:29:15.177Z,10.88
2017-11-20T04:31:41.624Z,11.60
2017-11-20T04:34:08.110Z,16.80
2017-11-20T04:36:35.253Z,12.63
2017-11-20T04:39:02.463Z,13.35
2017-11-20T04:41:28.885Z,12.30
2017-11-20T04:43:55.321Z,12.95
2017-11-20T04:46:21.771Z,13.85
2017-11-20T04:48:48.201Z,10.45
2017-11-20T04:51:14.641Z,9.50
2017-11-20T04:53:41.096Z,5.53
2017-11-20T04:56:07.545Z,11.05
2017-11-20T04:58:34.704Z,9.80
2017-11-20T05:01:01.885Z,9.35
2017-11-20T05:03:28.289Z,8.13
2017-11-20T05:05:55.452Z,9.30
2017-11-20T05:08:21.869Z,8.05
2017-11-20T05:10:49.049Z,9.10
2017-11-20T05:13:15.463Z,7.90
2017-11-20T05:15:41.864Z,6.37
2017-11-20T05:18:08.286Z,2.70
2017-11-20T05:20:34.684Z,2.50
2017-11-20T05:23:01.105Z,1.70
2017-11-20T05:25:27.525Z,1.25
2017-11-20T05:27:53.916Z,0.80
2017-11-20T05:30:20.366Z,0.77
2017-11-20T05:32:46.828Z,0.70
2017-11-20T05:35:13.244Z,2.17
2017-11-20T05:37:40.392Z,1.10
2017-11-20T05:40:07.591Z,1.90
2017-11-20T05:42:34.004Z,0.80
2017-11-20T05:45:00.380Z,1.50
2017-11-20T05:47:26.837Z,0.60
2017-11-20T05:49:53.315Z,3.47
2017-11-20T05:52:19.775Z,0.88
2017-11-20T05:54:46.356Z,0.70
2017-11-20T05:57:12.872Z,1.12
2017-11-20T05:59:40.097Z,0.90
2017-11-20T06:02:06.521Z,1.12
2017-11-20T06:04:32.961Z,0.68
2017-11-20T06:06:59.385Z,0.90
2017-11-20T06:09:25.790Z,1.35
2017-11-20T06:11:52.201Z,0.90
2017-11-20T06:14:19.355Z,1.45
2017-11-20T06:16:46.496Z,3.65
2017-11-20T06:19:13.664Z,4.15
2017-11-20T06:21:40.062Z,0.70
2017-11-20T06:24:06.516Z,0.80
2017-11-20T06:26:33.677Z,0.50
2017-11-20T06:29:00.066Z,1.30
2017-11-20T06:31:26.476Z,1.35
2017-11-20T06:33:52.884Z,1.55
2017-11-20T06:36:19.269Z,1.25
2017-11-20T06:38:45.685Z,0.73
2017-11-20T06:41:12.832Z,1.40
2017-11-20T06:43:39.265Z,1.50
2017-11-20T06:46:05.736Z,4.40
2017-11-20T06:48:32.883Z,2.97
2017-11-20T06:51:00.073Z,12.55
2017-11-20T06:53:26.488Z,1.23
2017-11-20T06:55:53.076Z,1.58
2017-11-20T06:58:20.286Z,8.05
2017-11-20T07:00:46.692Z,5.05
2017-11-20T07:03:13.972Z,1.35
2017-11-20T07:05:40.355Z,4.07
2017-11-20T07:08:06.755Z,4.95
2017-11-20T07:10:33.173Z,1.95
2017-11-20T07:12:59.588Z,3.33
2017-11-20T07:15:26.766Z,3.65
2017-11-20T07:17:53.159Z,1.35
2017-11-20T07:20:20.325Z,1.73
2017-11-20T07:22:46.720Z,1.40
2017-11-20T07:25:25.457Z,1.15
2017-11-20T07:28:00.131Z,0.98
2017-11-20T07:30:30.184Z,1.25
2017-11-20T07:32:56.668Z,7.78
2017-11-20T07:35:23.293Z,8.40
2017-11-20T07:38:01.914Z,1.25
2017-11-20T07:40:40.455Z,0.90
2017-11-20T07:43:07.661Z,2.70
2017-11-20T07:45:34.869Z,0.90
2017-11-20T07:48:01.255Z,2.55
2017-11-20T07:50:27.677Z,2.58
2017-11-20T07:52:54.867Z,5.47
2017-11-20T07:55:22.155Z,6.20
2017-11-20T07:57:48.660Z,2.78
2017-11-20T08:00:15.405Z,4.85
2017-11-20T08:02:42.615Z,1.70
2017-11-20T08:05:09.838Z,3.35
2017-11-20T08:07:37.085Z,0.80
2017-11-20T08:10:04.264Z,1.00
2017-11-20T08:12:31.416Z,2.62
2017-11-20T08:14:58.620Z,0.88
2017-11-20T08:17:25.816Z,1.12
2017-11-20T08:19:52.963Z,0.65
2017-11-20T08:22:20.100Z,1.05
2017-11-20T08:24:46.512Z,1.30
2017-11-20T08:27:13.680Z,1.90
2017-11-20T08:29:40.079Z,2.35
2017-11-20T08:32:06.492Z,0.75
2017-11-20T08:34:33.703Z,1.85
2017-11-20T08:37:00.853Z,0.68
2017-11-20T08:39:28.024Z,0.70
2017-11-20T08:41:55.160Z,0.80
2017-11-20T08:44:22.299Z,1.27
2017-11-20T08:46:48.792Z,2.22
2017-11-20T08:49:15.443Z,1.05
2017-11-20T08:51:42.601Z,0.95
2017-11-20T08:54:09.114Z,0.82
2017-11-20T08:56:35.577Z,1.27
2017-11-20T08:59:02.085Z,0.60
2017-11-20T09:01:28.583Z,0.70
2017-11-20T09:03:55.072Z,0.73
2017-11-20T09:06:21.548Z,0.77
2017-11-20T09:08:48.702Z,1.08
2017-11-20T09:11:15.265Z,1.98
2017-11-20T09:13:41.716Z,1.40
2017-11-20T09:16:08.904Z,1.48
2017-11-20T09:18:36.108Z,1.65
2017-11-20T09:21:02.637Z,0.80
2017-11-20T09:23:29.231Z,1.37
2017-11-20T09:25:55.699Z,1.35
2017-11-20T09:28:22.135Z,2.00
2017-11-20T09:30:48.633Z,0.67
2017-11-20T09:33:15.861Z,1.10
2017-11-20T09:35:42.281Z,0.60
2017-11-20T09:38:08.728Z,0.70
2017-11-20T09:40:35.123Z,0.80
2017-11-20T09:43:01.558Z,0.83
2017-11-20T09:45:27.964Z,0.70
2017-11-20T09:47:55.161Z,3.40
2017-11-20T09:50:21.619Z,0.80
2017-11-20T09:52:48.061Z,2.20
2017-11-20T09:55:14.524Z,0.70
2017-11-20T09:57:40.976Z,1.97
2017-11-20T10:00:07.440Z,2.00
2017-11-20T10:02:33.899Z,0.80
2017-11-20T10:05:01.140Z,1.00
2017-11-20T10:07:27.616Z,1.93
2017-11-20T10:09:54.056Z,0.90
2017-11-20T10:12:20.500Z,1.80
2017-11-20T10:14:46.971Z,0.73
2017-11-20T10:17:13.454Z,3.07
2017-11-20T10:19:39.900Z,2.57
2017-11-20T10:22:06.379Z,1.60
2017-11-20T10:24:32.845Z,1.10
2017-11-20T10:26:59.297Z,0.87
2017-11-20T10:29:25.837Z,1.33
2017-11-20T10:31:53.040Z,1.73
2017-11-20T10:34:19.519Z,1.43
2017-11-20T10:36:45.976Z,1.20
2017-11-20T10:39:12.420Z,1.57
2017-11-20T10:41:38.867Z,0.83
2017-11-20T10:44:05.445Z,1.57
2017-11-20T10:46:31.909Z,2.67
2017-11-20T10:48:58.357Z,2.63
2017-11-20T10:51:24.808Z,4.40
2017-11-20T10:53:51.259Z,4.67
2017-11-20T10:56:18.465Z,5.53
2017-11-20T10:58:44.898Z,2.10
2017-11-20T11:01:11.323Z,0.87
2017-11-20T11:03:37.793Z,0.83
2017-11-20T11:06:04.257Z,4.20
2017-11-20T11:08:30.693Z,3.10
2017-11-20T11:10:57.157Z,1.30
2017-11-20T11:13:23.620Z,1.20
2017-11-20T11:15:50.088Z,2.57
2017-11-20T11:18:16.578Z,1.23
2017-11-20T11:20:43.013Z,2.20
2017-11-20T11:23:09.469Z,2.03
2017-11-20T11:25:36.640Z,2.40
2017-11-20T11:28:03.115Z,1.20
2017-11-20T11:30:29.650Z,1.87
2017-11-20T11:32:56.133Z,1.67
2017-11-20T11:35:23.561Z,3.50
2017-11-20T11:37:49.989Z,1.37
2017-11-20T11:40:16.452Z,1.43
2017-11-20T11:42:43.622Z,1.57
2017-11-20T11:45:10.166Z,2.40
2017-11-20T11:47:36.616Z,3.50
2017-11-20T11:50:03.065Z,1.87
2017-11-20T11:52:29.559Z,1.40
2017-11-20T11:54:56.067Z,2.80
2017-11-20T11:57:23.257Z,0.90
2017-11-20T11:59:49.716Z,1.43
2017-11-20T12:02:16.184Z,1.10
2017-11-20T12:04:43.405Z,1.23
2017-11-20T12:07:10.729Z,1.23
2017-11-20T12:09:37.194Z,1.33
2017-11-20T12:12:03.697Z,1.10
2017-11-20T12:14:30.145Z,1.33
2017-11-20T12:16:56.613Z,3.07
2017-11-20T12:19:23.173Z,1.13
2017-11-20T12:21:49.689Z,1.20
2017-11-20T12:24:16.185Z,1.30
2017-11-20T12:26:42.633Z,2.10
2017-11-20T12:29:09.135Z,1.77
2017-11-20T12:31:35.583Z,1.93
2017-11-20T12:34:02.089Z,1.90
2017-11-20T12:36:28.541Z,2.70
2017-11-20T12:38:55.016Z,2.70
2017-11-20T12:41:21.488Z,1.93
2017-11-20T12:43:48.055Z,1.47
2017-11-20T12:46:14.593Z,1.70
2017-11-20T12:48:41.121Z,1.23
2017-11-20T12:51:07.651Z,2.50
2017-11-20T12:53:34.164Z,2.57
2017-11-20T12:56:00.620Z,4.83
2017-11-20T12:58:27.281Z,5.03
2017-11-20T13:00:53.873Z,1.47
2017-11-20T13:03:20.389Z,0.80
2017-11-20T13:05:47.596Z,2.90
2017-11-20T13:08:14.021Z,2.00
2017-11-20T13:10:40.520Z,1.07
2017-11-20T13:13:07.714Z,2.87
2017-11-20T13:15:34.206Z,1.17
2017-11-20T13:18:01.383Z,1.60
2017-11-20T13:20:27.883Z,1.33
2017-11-20T13:22:55.133Z,2.40
2017-11-20T13:25:22.316Z,1.20
2017-11-20T13:27:48.734Z,2.07
2017-11-20T13:30:15.962Z,0.73
2017-11-20T13:32:42.458Z,1.10
2017-11-20T13:35:08.897Z,1.07
2017-11-20T13:37:35.397Z,1.70
2017-11-20T13:40:01.852Z,1.13
2017-11-20T13:42:28.344Z,1.43
2017-11-20T13:44:55.598Z,1.10
2017-11-20T13:47:22.999Z,1.10
2017-11-20T13:49:50.242Z,1.80
2017-11-20T13:52:16.696Z,1.57
2017-11-20T13:54:43.577Z,2.83
2017-11-20T13:57:10.133Z,1.30
2017-11-20T13:59:37.539Z,2.20
2017-11-20T14:02:03.983Z,1.40
2017-11-20T14:04:30.520Z,2.80
2017-11-20T14:06:57.441Z,4.90
2017-11-20T14:09:24.060Z,1.87
2017-11-20T14:11:50.616Z,2.43
2017-11-20T14:14:17.172Z,2.40
2017-11-20T14:16:43.831Z,2.47
2017-11-20T14:19:11.024Z,2.20
2017-11-20T14:21:37.552Z,2.07
2017-11-20T14:24:04.003Z,1.50
2017-11-20T14:26:30.613Z,1.27
2017-11-20T14:28:57.213Z,3.20
2017-11-20T14:31:26.898Z,5.37
2017-11-20T14:33:53.969Z,4.53
2017-11-20T14:36:20.892Z,2.50
2017-11-20T14:38:47.506Z,2.43
2017-11-20T14:41:14.510Z,1.93
2017-11-20T14:43:41.316Z,1.80
2017-11-20T14:46:08.000Z,7.80
2017-11-20T14:48:39.676Z,3.90
2017-11-20T14:54:03.124Z,2.60
2017-11-20T14:56:30.504Z,2.97
2017-11-20T14:58:57.024Z,3.13
2017-11-20T15:01:33.225Z,3.40
2017-11-20T15:03:59.793Z,2.73
2017-11-20T15:06:26.257Z,1.80
2017-11-20T15:08:53.610Z,3.00
2017-11-20T15:11:20.842Z,2.25
2017-11-20T15:13:47.449Z,5.70
2017-11-20T15:16:14.880Z,2.93
2017-11-20T15:18:41.575Z,2.83
2017-11-20T15:21:08.792Z,2.40
2017-11-20T15:23:35.309Z,2.03
2017-11-20T15:26:01.910Z,2.83
2017-11-20T15:28:29.161Z,2.23
2017-11-20T15:30:56.374Z,2.63
2017-11-20T15:33:22.851Z,6.60
2017-11-20T15:35:50.078Z,7.57
2017-11-20T15:38:16.565Z,2.90
2017-11-20T15:40:43.032Z,2.83
2017-11-20T15:43:09.480Z,2.83
2017-11-20T15:45:35.936Z,2.72
2017-11-20T15:48:03.170Z,2.13
2017-11-20T15:50:29.658Z,4.77
2017-11-20T15:52:56.342Z,2.30
2017-11-20T15:55:22.928Z,2.57
2017-11-20T15:57:49.358Z,4.50
2017-11-20T16:00:16.112Z,7.20
2017-11-20T16:02:43.085Z,2.90
2017-11-20T16:05:09.981Z,3.07
2017-11-20T16:07:36.566Z,2.60
2017-11-20T16:10:03.149Z,2.83
2017-11-20T16:12:29.610Z,2.42
2017-11-20T16:14:56.641Z,4.25
2017-11-20T16:17:23.226Z,7.10
2017-11-20T16:19:49.973Z,8.55
2017-11-20T16:22:16.436Z,6.95
2017-11-20T16:24:43.075Z,6.70
2017-11-20T16:27:09.655Z,8.52
2017-11-20T16:29:37.110Z,6.10
2017-11-20T16:32:03.552Z,10.52
2017-11-20T16:34:33.293Z,8.05
2017-11-20T16:37:02.721Z,15.50
2017-11-20T16:39:29.134Z,8.77
2017-11-20T16:41:57.204Z,10.10
2017-11-20T16:44:28.180Z,11.12
2017-11-20T16:46:54.754Z,16.12
2017-11-20T16:49:21.233Z,22.70
2017-11-20T16:51:48.036Z,18.10
2017-11-20T16:54:14.705Z,23.15
2017-11-20T16:56:41.278Z,21.10
2017-11-20T16:59:07.988Z,21.45
2017-11-20T17:01:58.625Z,22.75
2017-11-20T17:04:25.181Z,16.92
2017-11-20T17:06:51.576Z,11.70
2017-11-20T17:09:18.033Z,11.52
2017-11-20T17:11:44.455Z,16.62
2017-11-20T17:14:10.902Z,25.55
2017-11-20T17:16:37.313Z,29.92
2017-11-20T17:19:03.764Z,31.70
2017-11-20T17:21:30.192Z,34.05
2017-11-20T17:23:56.861Z,27.62
2017-11-20T17:26:24.028Z,34.55
2017-11-20T17:28:51.200Z,32.20
2017-11-20T17:31:17.617Z,33.85
2017-11-20T17:33:44.845Z,30.10
2017-11-20T17:36:12.024Z,26.48
2017-11-20T17:38:39.184Z,33.92
2017-11-20T17:41:05.649Z,37.80
2017-11-20T17:43:32.069Z,38.58
2017-11-20T17:45:58.462Z,49.85
2017-11-20T17:48:25.882Z,64.37
2017-11-20T17:50:52.701Z,62.97
2017-11-20T17:53:19.217Z,61.78
2017-11-20T17:55:45.745Z,60.28
2017-11-20T17:58:12.137Z,64.75
2017-11-20T18:00:38.700Z,54.90
2017-11-20T18:03:05.132Z,66.60
2017-11-20T18:05:32.354Z,61.03
2017-11-20T18:07:58.793Z,49.38
2017-11-20T18:10:25.941Z,39.75
2017-11-20T18:12:52.436Z,32.50
2017-11-20T18:15:18.935Z,33.50
2017-11-20T18:17:45.629Z,32.50
2017-11-20T18:20:12.258Z,33.10
2017-11-20T18:22:38.757Z,32.63
2017-11-20T18:25:06.749Z,37.38
2017-11-20T18:27:33.308Z,26.58
2017-11-20T18:29:59.761Z,27.95
2017-11-20T18:32:26.209Z,22.80
2017-11-20T18:34:53.465Z,26.30
2017-11-20T18:37:20.095Z,29.77
2017-11-20T18:39:46.533Z,33.13
2017-11-20T18:42:13.748Z,31.98
2017-11-20T18:44:40.169Z,32.65
2017-11-20T18:47:06.978Z,35.67
2017-11-20T18:49:33.498Z,35.00
2017-11-20T18:52:00.028Z,30.48
2017-11-20T18:54:27.240Z,32.40
2017-11-20T18:56:53.700Z,30.17
2017-11-20T18:59:20.245Z,36.50
2017-11-20T19:01:59.679Z,27.85
2017-11-20T19:04:39.087Z,29.12
2017-11-20T19:07:17.642Z,27.62
2017-11-20T19:09:44.089Z,25.60
2017-11-20T19:12:11.258Z,23.30
2017-11-20T19:14:37.739Z,24.80
2017-11-20T19:17:04.352Z,22.70
2017-11-20T19:19:30.788Z,25.12
2017-11-20T19:21:57.208Z,23.90
2017-11-20T19:24:23.662Z,20.00
2017-11-20T19:26:50.091Z,19.40
2017-11-20T19:29:16.572Z,27.23
2017-11-20T19:31:43.736Z,23.25
2017-11-20T19:34:10.961Z,23.27
2017-11-20T19:36:37.400Z,20.02
2017-11-20T19:39:03.865Z,23.02
2017-11-20T19:41:30.327Z,23.08
2017-11-20T19:43:56.820Z,23.62
2017-11-20T19:46:23.256Z,19.85
2017-11-20T19:48:50.393Z,22.70
2017-11-20T19:51:17.553Z,23.50
2017-11-20T19:53:44.777Z,23.35
2017-11-20T19:56:11.969Z,30.42
2017-11-20T19:58:38.360Z,24.05
2017-11-20T20:01:04.833Z,27.60
2017-11-20T20:03:31.257Z,20.10
2017-11-20T20:05:57.755Z,24.58
2017-11-20T20:08:24.915Z,19.40
2017-11-20T20:10:51.298Z,19.77
2017-11-20T20:13:17.769Z,19.52
2017-11-20T20:18:34.321Z,26.35
2017-11-20T20:21:01.500Z,28.25
2017-11-20T20:23:28.049Z,23.35
2017-11-20T20:25:54.448Z,21.70
2017-11-20T20:28:21.614Z,22.70
2017-11-20T20:30:47.993Z,25.62
2017-11-20T20:33:14.417Z,22.95
2017-11-20T20:35:40.809Z,22.58
2017-11-20T20:38:07.192Z,18.20
2017-11-20T20:40:33.673Z,17.70
2017-11-20T20:43:00.187Z,21.40
2017-11-20T20:45:26.694Z,14.60
2017-11-20T20:47:53.942Z,22.25
2017-11-20T20:50:20.357Z,19.02
2017-11-20T20:52:46.777Z,18.62
2017-11-20T20:55:13.187Z,19.77
2017-11-20T20:57:39.732Z,17.40
2017-11-20T21:00:06.213Z,14.70
2017-11-20T21:02:32.653Z,16.95
2017-11-20T21:04:59.083Z,15.90
2017-11-20T21:07:26.442Z,15.43
2017-11-20T21:09:58.882Z,15.15
2017-11-20T21:12:25.271Z,15.88
2017-11-20T21:14:52.495Z,18.35
2017-11-20T21:17:19.661Z,18.00
2017-11-20T21:19:53.245Z,13.93
2017-11-20T21:22:19.745Z,16.23
2017-11-20T21:24:46.181Z,16.52
2017-11-20T21:27:12.580Z,21.25
2017-11-20T21:29:39.144Z,23.98
2017-11-20T21:32:05.555Z,23.27
2017-11-20T21:34:32.717Z,29.45
2017-11-20T21:36:59.154Z,36.53
2017-11-20T21:39:25.553Z,36.22
2017-11-20T21:41:52.719Z,33.75
2017-11-20T21:44:19.913Z,29.52
2017-11-20T21:46:46.321Z,31.62
2017-11-20T21:49:12.792Z,25.62
2017-11-20T21:51:39.236Z,28.08
2017-11-20T21:54:05.689Z,22.48
2017-11-20T21:56:32.865Z,24.20
2017-11-20T21:58:59.283Z,24.35
2017-11-20T22:01:26.410Z,24.50
2017-11-20T22:03:52.840Z,30.48
2017-11-20T22:06:19.281Z,21.25
2017-11-20T22:08:46.449Z,19.73
2017-11-20T22:11:13.641Z,15.70
2017-11-20T22:13:40.094Z,13.20
2017-11-20T22:16:06.537Z,16.75
2017-11-20T22:18:32.961Z,14.05
2017-11-20T22:20:59.378Z,13.25
2017-11-20T22:23:25.805Z,11.75
2017-11-20T22:25:52.264Z,13.60
2017-11-20T22:28:18.725Z,10.10
2017-11-20T22:30:45.904Z,13.57
2017-11-20T22:33:12.357Z,13.27
2017-11-20T22:35:39.498Z,9.35
2017-11-20T22:38:05.968Z,9.63
2017-11-20T22:40:32.406Z,12.30
2017-11-20T22:42:58.836Z,8.95
2017-11-20T22:45:25.298Z,9.80
2017-11-20T22:47:52.472Z,9.20
2017-11-20T22:50:18.864Z,11.65
2017-11-20T22:52:45.325Z,10.30
2017-11-20T22:55:11.713Z,10.43
2017-11-20T22:57:38.156Z,9.23
2017-11-20T23:00:05.314Z,9.05
2017-11-20T23:02:31.785Z,9.25
2017-11-20T23:04:58.197Z,10.07
2017-11-20T23:07:27.065Z,9.20
2017-11-20T23:09:54.020Z,10.93
2017-11-20T23:12:21.210Z,11.25
2017-11-20T23:14:47.634Z,14.07
2017-11-20T23:17:14.042Z,9.15
2017-11-20T23:19:41.207Z,8.65
2017-11-20T23:22:07.626Z,11.55
2017-11-20T23:24:34.909Z,13.43
2017-11-20T23:27:01.336Z,11.82
2017-11-20T23:29:27.781Z,15.48
2017-11-20T23:31:54.204Z,13.93
2017-11-20T23:34:20.643Z,9.75
2017-11-20T23:36:47.064Z,11.85
2017-11-20T23:39:13.463Z,11.00
2017-11-20T23:41:39.878Z,11.23
2017-11-20T23:44:06.334Z,9.88
2017-11-20T23:46:33.480Z,12.00
2017-11-20T23:48:59.877Z,8.52
2017-11-20T23:51:26.305Z,8.02
2017-11-20T23:53:52.845Z,8.15
2017-11-20T23:56:19.290Z,7.30
2017-11-20T23:58:45.662Z,7.37
